Tuesday, January 16, 2018, 12:26 PM EST
Back to Local

KGTB, Fort Drum / Wheeler-sack U. S. Army Airfield

Location: Fort Drum, NY, United States Lat: 44.05
Local Time: 12:26 PM EST (17:26 GMT) Lon: -75.733
Time Zone: US/Eastern Elev: 679 ft

Show me the last for .
Show Coded

Time T Td Feel RH Dir Speed Gust Alt SLP Vis Weather Sky Remarks
2018-01-16 11:56 26 19 17 76 220° 9 - 30.34 30.38 10 BKN016 1-hr Precip Total: Trace
2018-01-16 11:34 27 19 18 73 220° 8 - 30.35 30.38 10 BKN016 BKN026 None
2018-01-16 11:14 23 19 11 85 210° 13 - 30.35 30.39 10 -SN BKN016 OVC025 None
2018-01-16 11:06 23 18 15 79 160° 7 - 30.35 30.39 10 BKN016 BKN022 OVC030 None
2018-01-16 10:56 22 17 14 80 170° 7 - 30.36 30.40 10 SCT016 SCT022 OVC034 1-hr Precip Total: Trace
2018-01-16 10:38 23 18 15 79 160° 7 - 30.36 30.40 7 FEW017 None
2018-01-16 10:22 23 18 15 79 150° 7 - 30.36 30.40 7 -SN SCT018 OVC043 None
2018-01-16 10:19 23 18 15 79 140° 7 - 30.36 30.40 7 SCT018 OVC043 None
2018-01-16 09:56 22 17 14 83 150° 6 - 30.36 30.40 4 BLSN FEW017 OVC038 1-hr Precip Total: Trace
6-hr Precip Total (10am): 0.00"
2018-01-16 09:24 21 16 11 79 150° 9 - 30.36 30.40 8 -SN OVC048 None
2018-01-16 09:12 19 16 7 85 150° 12 - 30.35 30.39 6 HZ FEW019 OVC055 None
2018-01-16 08:56 20 16 9 82 150° 10 - 30.35 30.39 6 -SN SCT015 OVC060 1-hr Precip Total: Trace
2018-01-16 08:52 19 16 9 85 150° 9 - 30.35 30.39 6 -SN SCT015 None
2018-01-16 08:32 19 16 9 85 150° 9 - 30.35 30.39 10 -SN BKN017 OVC022 None
2018-01-16 08:31 19 16 9 85 150° 9 - 30.35 30.39 10 BKN017 OVC022 None
2018-01-16 08:21 19 16 9 85 150° 9 - 30.34 30.38 10 -SN BKN019 OVC033 None
2018-01-16 08:14 19 14 9 79 150° 9 - 30.34 30.38 10 SCT020 BKN027 OVC035 None
2018-01-16 08:07 19 14 9 79 150° 9 - 30.34 30.38 10 -SN BKN019 BKN027 OVC035 None
2018-01-16 07:57 19 14 9 79 150° 9 - 30.34 30.38 10 -UP BKN015 OVC024 None
2018-01-16 07:56 19 15 8 81 140° 9 - 30.34 30.38 10 BKN015 BKN022 OVC028 None
2018-01-16 07:36 19 14 8 79 150° 10 - 30.34 30.38 10 OVC019 None
2018-01-16 07:06 19 14 9 79 150° 8 - 30.34 30.38 10 SCT012 BKN025 OVC033 None
2018-01-16 06:56 19 15 8 82 150° 9 - 30.34 30.38 10 BKN013 OVC024 1-hr Precip Total: Trace
6-hr Precip Total (7am): 0.00"
Snow depth: 7"
6-hr Min Temp (7am): 12.0°F
6-hr Max Temp (7am): 18.9°F
2018-01-16 06:52 19 14 9 79 150° 8 - 30.34 30.38 10 BKN013 OVC024 None
2018-01-16 06:42 19 14 9 79 150° 8 - 30.34 30.38 10 FEW013 OVC023 None
2018-01-16 06:29 19 14 9 79 140° 9 - 30.34 30.38 10 -SN OVC023 None
2018-01-16 06:21 19 14 9 79 140° 8 - 30.33 30.37 10 OVC022 None
2018-01-16 06:06 19 14 9 79 150° 8 - 30.34 30.38 9 -SN FEW004 FEW018 OVC024 None
2018-01-16 05:56 18 14 9 84 140° 7 - 30.33 30.37 5 -SN BR SCT004 BKN019 OVC024 1-hr Precip Total: Trace
2018-01-16 05:52 18 14 8 85 130° 7 - 30.33 30.37 4 -SN BR SCT004 BKN019 BKN025 OVC050 None
2018-01-16 05:42 14 12 4 92 140° 7 - 30.34 30.39 4 BLSN BR BKN004 OVC017 None
2018-01-16 05:22 12 9 4 85 150° 5 - 30.34 30.39 9 -SN FEW006 OVC017 None
2018-01-16 05:02 12 9 3 85 160° 6 - 30.33 30.38 10 -SN OVC016 None
2018-01-16 04:56 12 8 5 83 160° 5 - 30.33 30.38 10 OVC016 1-hr Precip Total: Trace
2018-01-16 04:47 12 9 - 85 - Calm - 30.33 30.38 10 OVC017 None
2018-01-16 04:01 18 14 8 85 150° 7 - 30.33 30.37 10 -SN OVC018 None
2018-01-16 03:56 18 14 7 81 150° 10 - 30.33 30.37 10 OVC018 6-hr Precip Total (4am): 0.00"
2018-01-16 03:16 18 14 5 85 150° 12 - 30.33 30.37 10 OVC019 None
2018-01-16 02:56 18 13 6 81 150° 10 - 30.32 30.36 10 OVC020 1-hr Precip Total: Trace
2018-01-16 02:40 18 14 5 85 150° 12 - 30.32 30.36 10 SCT006 OVC022 None
2018-01-16 02:20 18 14 4 85 140° 13 - 30.32 30.36 9 BKN006 BKN011 OVC026 None
2018-01-16 02:00 18 12 5 78 150° 12 - 30.33 30.37 7 FEW006 BKN026 None
2018-01-16 01:58 18 14 6 85 150° 9 - 30.33 30.37 7 BKN026 None
2018-01-16 01:56 18 13 6 81 150° 10 - 30.33 30.37 6 BLSN FEW005 BKN026 1-hr Precip Total: Trace
2018-01-16 01:47 18 14 6 85 150° 10 - 30.33 30.37 6 BLSN FEW005 BKN027 None
2018-01-16 01:34 18 12 6 78 150° 10 - 30.33 30.37 7 -SN BKN027 None
2018-01-16 01:22 18 12 5 78 140° 12 - 30.33 30.37 7 BKN027 OVC033 None
2018-01-16 00:57 18 12 6 78 130° 9 - 30.33 30.37 8 -SN BKN027 None
2018-01-16 00:56 18 13 7 79 140° 8 - 30.33 30.37 8 BKN027 1-hr Precip Total: Trace
6-hr Precip Total (1am): 0.00"
6-hr Min Temp (1am): 10.0°F
6-hr Max Temp (1am): 18.5°F
2018-01-16 00:37 18 12 6 78 140° 10 - 30.33 30.37 8 FEW028 None
2018-01-16 00:30 18 12 6 78 140° 10 - 30.34 30.38 8 -SN FEW028 None
2018-01-15 23:56 17 12 3 78 140° 15 - 30.35 30.39 10 FEW009 SCT022 BKN033 1-hr Precip Total: Trace
24-hr Min Temp (12am): -11.6°F
24-hr Max Temp (12am): 18.5°F
2018-01-15 23:45 18 12 4 78 140° 14 - 30.35 30.39 9 FEW008 SCT013 SCT025 SCT033 None
2018-01-15 23:39 18 12 4 78 140° 14 - 30.36 30.40 9 SCT009 BKN026 None
2018-01-15 23:19 18 10 5 72 150° 12 - 30.37 30.41 10 FEW008 SCT028 None
2018-01-15 22:56 18 10 6 68 150° 12 - 30.38 30.43 10 FEW027 OVC048 None
2018-01-15 22:36 19 9 8 62 150° 10 - 30.38 30.43 10 FEW017 SCT024 BKN034 OVC050 None
2018-01-15 22:26 19 9 8 62 140° 10 - 30.39 30.44 10 FEW015 BKN024 BKN034 OVC044 None
2018-01-15 21:56 18 9 7 65 140° 10 - 30.39 30.44 10 FEW025 SCT030 BKN050 OVC060 None
2018-01-15 20:56 11 6 0 81 120° 7 - 30.41 30.47 10 OVC031 None
2018-01-15 19:56 10 6 2 80 50° 5 - 30.44 30.50 10 FEW035 OVC070 None
2018-01-15 18:56 11 6 4 79 110° 3 - 30.45 30.51 10 OVC032 Snow depth: 6"
6-hr Min Temp (7pm): 9.1°F
6-hr Max Temp (7pm): 17.2°F
2018-01-15 17:56 11 5 0 78 100° 7 - 30.47 30.53 10 OVC033 None
2018-01-15 16:56 10 4 -3 78 90° 8 - 30.48 30.54 10 OVC033 None
2018-01-15 15:56 10 4 -2 76 60° 7 - 30.50 30.56 10 OVC130 None
2018-01-15 14:56 10 3 -1 74 30° 7 - 30.51 30.57 10 BKN130 BKN150 None
2018-01-15 13:56 11 4 3 72 10° 5 - 30.52 30.58 10 FEW140 SCT160 None
2018-01-15 12:56 17 5 7 57 150° 8 - 30.55 30.60 10 CLR Snow depth: 6"
6-hr Min Temp (1pm): -11.6°F
6-hr Max Temp (1pm): 17.2°F

Support USWX by starting your Amazon purchase here.